Time;durP1;ratioP1;P1;durP2;ratioP2;P2;SDS_P1;SDS_P2;PMS_P1;PMS_P2;Temp;Humidity;BMP_temperature;BMP_pressure;BME280_temperature;BME280_humidity;BME280_pressure;Samples;Min_cycle;Max_cycle;Signal;HPM_P1;HPM_P2
2022/03/15 00:00:44;;;;;;;;;407.50;361.00;9.60;36.70;;;;;;4996467;28;8784;-63
2022/03/15 00:03:10;;;;;;;;;429.50;379.00;9.90;36.40;;;;;;4995541;28;9469;-63
2022/03/15 00:05:37;;;;;;;;;409.50;366.00;10.20;36.20;;;;;;4996205;28;8951;-62
2022/03/15 00:08:03;;;;;;;;;362.00;319.75;10.40;35.50;;;;;;4996045;28;8799;-64
2022/03/15 00:10:29;;;;;;;;;269.75;239.75;10.50;35.40;;;;;;4996225;28;8822;-62
2022/03/15 00:12:56;;;;;;;;;249.75;231.00;10.40;35.70;;;;;;4996165;28;9458;-62
2022/03/15 00:15:23;;;;;;;;;172.75;159.25;10.40;35.60;;;;;;4995904;28;8796;-64
2022/03/15 00:17:49;;;;;;;;;173.00;155.75;10.50;35.50;;;;;;4994670;28;8784;-62
2022/03/15 00:20:18;;;;;;;;;130.25;123.25;10.50;35.40;;;;;;4996145;28;8816;-65
2022/03/15 00:22:47;;;;;;;;;129.25;113.75;10.50;35.20;;;;;;4995888;28;8772;-63
2022/03/15 00:25:17;;;;;;;;;100.50;88.25;10.50;35.10;;;;;;4996228;28;8836;-63
2022/03/15 00:27:47;;;;;;;;;120.00;112.00;10.40;35.00;;;;;;4995851;28;8788;-64
2022/03/15 00:30:14;;;;;;;;;104.50;94.50;10.30;35.40;;;;;;4995811;28;8796;-61
2022/03/15 00:32:41;;;;;;;;;107.75;98.00;10.10;35.50;;;;;;4995499;28;8819;-63
2022/03/15 00:35:14;;;;;;;;;114.50;103.75;9.90;36.00;;;;;;4996015;28;8861;-63
2022/03/15 00:37:41;;;;;;;;;109.00;102.50;9.90;36.30;;;;;;4995933;28;9458;-64
2022/03/15 00:40:07;;;;;;;;;125.75;113.25;9.90;35.90;;;;;;4995655;28;8792;-63
2022/03/15 00:42:33;;;;;;;;;137.25;123.25;10.00;36.20;;;;;;4995831;28;8768;-63
2022/03/15 00:45:01;;;;;;;;;145.25;132.75;10.00;36.10;;;;;;4995426;28;8819;-62
2022/03/15 00:47:28;;;;;;;;;162.00;148.00;10.10;36.00;;;;;;4995230;28;8768;-64
2022/03/15 00:49:54;;;;;;;;;161.00;143.00;10.00;36.20;;;;;;4995487;28;8788;-63
2022/03/15 00:52:20;;;;;;;;;149.75;137.50;9.90;36.40;;;;;;4995289;28;8822;-64
2022/03/15 00:54:45;;;;;;;;;168.00;155.75;9.90;36.60;;;;;;4995187;28;8820;-63
2022/03/15 00:57:11;;;;;;;;;163.25;142.00;9.80;36.70;;;;;;4995323;28;8854;-64
2022/03/15 00:59:37;;;;;;;;;190.75;175.25;9.80;36.90;;;;;;4995536;28;8791;-63
2022/03/15 01:02:03;;;;;;;;;190.75;179.25;9.70;36.90;;;;;;4993765;28;8780;-63
2022/03/15 01:04:29;;;;;;;;;172.75;151.00;9.50;37.50;;;;;;4995180;28;8781;-63
2022/03/15 01:06:55;;;;;;;;;199.75;176.25;9.50;38.00;;;;;;4995328;28;8797;-62
2022/03/15 01:09:21;;;;;;;;;167.00;157.75;9.40;37.90;;;;;;4995692;28;8772;-63
2022/03/15 01:11:47;;;;;;;;;190.75;171.50;9.60;37.60;;;;;;4995260;28;8816;-64
2022/03/15 01:14:13;;;;;;;;;164.50;146.00;9.80;37.20;;;;;;4995260;28;8791;-63
2022/03/15 01:16:39;;;;;;;;;174.25;156.25;10.00;36.90;;;;;;4994848;28;8887;-63
2022/03/15 01:19:08;;;;;;;;;185.00;172.75;10.10;36.40;;;;;;4994604;28;8803;-62
2022/03/15 01:21:38;;;;;;;;;240.00;215.00;10.00;36.50;;;;;;4994946;28;8784;-64
2022/03/15 01:24:06;;;;;;;;;254.75;231.50;9.50;38.30;;;;;;4994996;28;8873;-61
2022/03/15 01:26:33;;;;;;;;;260.50;236.00;9.30;38.10;;;;;;4995171;28;9494;-63
2022/03/15 01:29:00;;;;;;;;;250.75;231.75;9.20;38.30;;;;;;4994885;28;8769;-63
2022/03/15 01:31:27;;;;;;;;;266.50;234.50;8.90;38.80;;;;;;4995167;28;8773;-64
2022/03/15 01:33:52;;;;;;;;;267.50;246.50;8.50;39.80;;;;;;4994551;28;8855;-62
2022/03/15 01:36:19;;;;;;;;;296.50;257.25;8.50;40.00;;;;;;4994811;28;8792;-64
2022/03/15 01:38:46;;;;;;;;;295.00;258.75;8.50;40.30;;;;;;4995157;28;8781;-63
2022/03/15 01:41:11;;;;;;;;;255.00;240.00;8.50;40.50;;;;;;4994849;28;8785;-64
2022/03/15 01:43:40;;;;;;;;;260.50;242.75;8.50;40.50;;;;;;4994796;28;8784;-65
2022/03/15 01:46:06;;;;;;;;;258.50;232.50;8.50;40.70;;;;;;4993821;28;8793;-63
2022/03/15 01:48:33;;;;;;;;;210.75;197.25;8.40;41.00;;;;;;4994511;28;8882;-65
2022/03/15 01:50:59;;;;;;;;;179.00;162.00;8.40;41.40;;;;;;4994963;28;9523;-64
2022/03/15 01:53:25;;;;;;;;;159.00;138.50;8.40;42.20;;;;;;4994368;28;8816;-63
2022/03/15 01:55:51;;;;;;;;;153.25;135.00;8.60;42.40;;;;;;4994988;28;8914;-64
2022/03/15 01:58:17;;;;;;;;;129.50;113.25;8.70;42.50;;;;;;4994876;28;8862;-61
2022/03/15 02:00:45;;;;;;;;;154.00;140.25;8.70;42.50;;;;;;4994907;28;8760;-64
2022/03/15 02:03:11;;;;;;;;;172.50;156.00;8.60;42.90;;;;;;4994139;28;8768;-63
2022/03/15 02:05:36;;;;;;;;;176.00;159.50;8.50;42.30;;;;;;4994512;28;8798;-64
2022/03/15 02:08:14;;;;;;;;;164.00;151.25;8.30;42.50;;;;;;4994755;28;8796;-65
2022/03/15 02:10:41;;;;;;;;;148.75;133.75;8.30;42.90;;;;;;4994791;28;8780;-64
2022/03/15 02:13:08;;;;;;;;;142.00;135.75;8.30;43.20;;;;;;4994740;28;8857;-64
2022/03/15 02:15:34;;;;;;;;;163.25;150.25;8.20;43.30;;;;;;4998296;28;8764;-66
2022/03/15 02:18:00;;;;;;;;;159.00;147.25;8.20;42.90;;;;;;4997662;28;8811;-63
2022/03/15 02:20:27;;;;;;;;;164.00;147.25;8.60;42.20;;;;;;4998158;28;8776;-64
2022/03/15 02:22:53;;;;;;;;;150.50;133.75;8.50;42.10;;;;;;4998397;28;9447;-64
2022/03/15 02:25:19;;;;;;;;;158.00;146.00;8.30;42.60;;;;;;4997934;28;8792;-63
2022/03/15 02:27:45;;;;;;;;;156.50;140.00;8.00;43.00;;;;;;4998096;28;8800;-64
2022/03/15 02:30:12;;;;;;;;;159.50;144.00;8.00;43.30;;;;;;4997862;28;8891;-63
2022/03/15 02:32:42;;;;;;;;;155.50;138.00;7.60;44.50;;;;;;4997316;28;8828;-64
2022/03/15 02:35:08;;;;;;;;;179.25;157.75;7.40;45.00;;;;;;4998007;28;8766;-63
2022/03/15 02:37:34;;;;;;;;;164.25;147.25;7.30;45.40;;;;;;4997300;28;8785;-63
2022/03/15 02:40:00;;;;;;;;;160.00;143.75;7.20;45.40;;;;;;4996014;28;8792;-63
2022/03/15 02:42:26;;;;;;;;;158.00;146.75;7.40;45.10;;;;;;4997841;28;8780;-62
2022/03/15 02:44:52;;;;;;;;;133.00;119.50;7.70;44.40;;;;;;4997962;28;8797;-63
2022/03/15 02:47:18;;;;;;;;;131.00;115.50;7.70;44.10;;;;;;4997948;28;8769;-62
2022/03/15 02:49:43;;;;;;;;;124.75;113.50;7.60;44.10;;;;;;4997692;28;8780;-63
2022/03/15 02:52:10;;;;;;;;;122.50;111.25;7.80;43.70;;;;;;4997500;28;8913;-66
2022/03/15 02:54:39;;;;;;;;;129.25;114.75;7.90;43.30;;;;;;4997419;28;8832;-63
2022/03/15 02:57:05;;;;;;;;;117.50;107.25;8.00;43.10;;;;;;4997747;28;8760;-64
2022/03/15 02:59:31;;;;;;;;;125.50;115.50;7.50;44.70;;;;;;4995783;28;8785;-64
2022/03/15 03:01:57;;;;;;;;;126.00;109.25;6.80;46.70;;;;;;4997380;28;8799;-63
2022/03/15 03:04:23;;;;;;;;;148.50;132.00;6.20;49.10;;;;;;4997382;28;8776;-61
2022/03/15 03:06:49;;;;;;;;;140.00;130.75;6.10;50.00;;;;;;4997323;28;8791;-61
2022/03/15 03:09:16;;;;;;;;;155.25;145.00;5.90;49.70;;;;;;4997309;28;8789;-63
2022/03/15 03:11:42;;;;;;;;;137.75;125.25;5.90;49.80;;;;;;4997129;28;8820;-62
2022/03/15 03:14:08;;;;;;;;;138.50;126.50;6.40;47.90;;;;;;4997199;28;8795;-62
2022/03/15 03:16:34;;;;;;;;;126.75;110.00;6.90;45.60;;;;;;4997129;28;8765;-64
2022/03/15 03:19:02;;;;;;;;;119.75;107.25;6.80;45.00;;;;;;4997103;28;8963;-64
2022/03/15 03:21:29;;;;;;;;;113.25;102.25;6.80;45.20;;;;;;4997375;28;8791;-66
2022/03/15 03:23:56;;;;;;;;;107.75;101.25;7.00;44.70;;;;;;4995982;28;8952;-64
2022/03/15 03:26:23;;;;;;;;;108.50;103.50;7.00;44.60;;;;;;4996056;28;8804;-64
2022/03/15 03:28:50;;;;;;;;;120.00;110.75;7.00;44.10;;;;;;4997171;28;8800;-63
2022/03/15 03:31:16;;;;;;;;;114.75;106.00;7.00;44.00;;;;;;4996859;28;8797;-62
2022/03/15 03:33:43;;;;;;;;;116.00;105.50;7.20;43.20;;;;;;4996777;28;8867;-64
2022/03/15 03:36:09;;;;;;;;;108.25;98.00;7.10;43.80;;;;;;4996803;28;8769;-65
2022/03/15 03:38:36;;;;;;;;;103.75;94.25;7.10;43.80;;;;;;4996995;28;9540;-65
2022/03/15 03:41:04;;;;;;;;;111.00;105.25;7.20;43.40;;;;;;4996936;28;9434;-61
2022/03/15 03:43:31;;;;;;;;;118.50;109.25;7.00;44.00;;;;;;4996936;28;8772;-64
2022/03/15 03:45:57;;;;;;;;;117.25;108.75;7.30;44.20;;;;;;4996592;28;8919;-63
2022/03/15 03:48:24;;;;;;;;;110.75;105.00;7.30;43.60;;;;;;4996876;28;8780;-64
2022/03/15 03:50:50;;;;;;;;;120.75;110.25;7.30;43.40;;;;;;4996774;28;8894;-64
2022/03/15 03:53:17;;;;;;;;;124.75;109.25;7.80;42.80;;;;;;4996173;28;8812;-63
2022/03/15 03:55:44;;;;;;;;;112.50;106.00;8.10;41.70;;;;;;4996704;28;8886;-64
2022/03/15 03:58:11;;;;;;;;;119.00;107.50;7.90;42.20;;;;;;4995426;28;8904;-63
2022/03/15 04:00:37;;;;;;;;;107.50;101.50;7.50;43.10;;;;;;4996381;28;8788;-62
2022/03/15 04:03:03;;;;;;;;;108.50;99.00;7.10;44.30;;;;;;4996564;28;8816;-62
2022/03/15 04:05:35;;;;;;;;;116.25;105.75;7.10;44.20;;;;;;4996269;28;8877;-63
2022/03/15 04:08:01;;;;;;;;;152.75;139.50;6.20;47.30;;;;;;4996258;28;8787;-64
2022/03/15 04:10:28;;;;;;;;;176.00;160.25;5.90;48.90;;;;;;4996446;28;9446;-62
2022/03/15 04:12:55;;;;;;;;;165.25;153.75;5.80;49.50;;;;;;4996299;28;8890;-63
2022/03/15 04:15:22;;;;;;;;;166.25;154.00;5.90;48.70;;;;;;4996036;28;8850;-63
2022/03/15 04:17:48;;;;;;;;;148.75;134.75;6.30;47.30;;;;;;4996343;28;8789;-63
2022/03/15 04:20:14;;;;;;;;;142.00;130.75;6.40;47.00;;;;;;4996183;28;8788;-62
2022/03/15 04:22:40;;;;;;;;;135.75;120.25;6.20;47.50;;;;;;4996042;28;8819;-63
2022/03/15 04:25:07;;;;;;;;;143.75;123.75;6.20;48.60;;;;;;4996491;28;9536;-63
2022/03/15 04:27:33;;;;;;;;;131.25;121.25;5.90;49.10;;;;;;4995874;28;8789;-63
2022/03/15 04:29:59;;;;;;;;;146.00;132.50;6.10;48.80;;;;;;4995775;28;8788;-64
2022/03/15 04:32:24;;;;;;;;;131.25;121.50;6.00;49.10;;;;;;4995992;28;8797;-64
2022/03/15 04:34:51;;;;;;;;;133.50;115.75;6.50;47.70;;;;;;4995688;28;9467;-65
2022/03/15 04:37:19;;;;;;;;;154.50;145.00;6.70;46.50;;;;;;4995989;28;8780;-64
2022/03/15 04:39:45;;;;;;;;;137.00;122.50;6.90;45.80;;;;;;4995828;28;8761;-63
2022/03/15 04:42:11;;;;;;;;;123.50;112.25;7.10;45.30;;;;;;4995739;28;9435;-63
2022/03/15 04:44:37;;;;;;;;;131.25;121.00;7.30;44.60;;;;;;4995527;28;8830;-64
2022/03/15 04:47:03;;;;;;;;;133.75;121.75;7.60;43.90;;;;;;4995486;28;8756;-62
2022/03/15 04:49:29;;;;;;;;;140.75;127.50;7.30;43.70;;;;;;4995477;28;8949;-64
2022/03/15 04:51:55;;;;;;;;;115.00;104.25;6.40;46.00;;;;;;4995691;28;8882;-63
2022/03/15 04:54:21;;;;;;;;;134.25;120.75;6.20;46.80;;;;;;4995316;28;9507;-63
2022/03/15 04:56:46;;;;;;;;;127.50;116.50;6.50;46.60;;;;;;4995373;28;9411;-64
2022/03/15 04:59:12;;;;;;;;;161.50;141.25;6.90;45.50;;;;;;4994497;28;8797;-63
2022/03/15 05:01:38;;;;;;;;;152.25;138.00;7.20;44.40;;;;;;4995221;28;8784;-64
2022/03/15 05:04:04;;;;;;;;;183.75;162.25;7.10;44.80;;;;;;4995105;28;8911;-65
2022/03/15 05:06:29;;;;;;;;;172.25;154.50;7.10;44.40;;;;;;4995436;28;8772;-63
2022/03/15 05:08:55;;;;;;;;;138.00;129.50;6.60;45.90;;;;;;4995391;28;8781;-65
2022/03/15 05:11:21;;;;;;;;;171.50;156.00;6.40;46.20;;;;;;4995138;28;8796;-64
2022/03/15 05:13:48;;;;;;;;;134.50;115.75;6.40;46.50;;;;;;4995173;28;8792;-64
2022/03/15 05:16:18;;;;;;;;;144.00;132.00;6.40;46.60;;;;;;4995084;28;8780;-63
2022/03/15 05:18:51;;;;;;;;;147.25;129.25;7.10;45.50;;;;;;4995033;28;8893;-64
2022/03/15 05:21:17;;;;;;;;;127.00;111.50;7.60;44.20;;;;;;4995025;28;8796;-63
2022/03/15 05:23:47;;;;;;;;;130.25;118.75;8.00;42.80;;;;;;4994908;28;8840;-65
2022/03/15 05:26:15;;;;;;;;;141.50;128.00;8.30;42.10;;;;;;4995189;28;8776;-62
2022/03/15 05:28:41;;;;;;;;;149.75;132.25;8.40;41.60;;;;;;4994941;28;8776;-62
2022/03/15 05:31:07;;;;;;;;;169.50;149.75;7.80;42.70;;;;;;4994907;28;8757;-63
2022/03/15 05:33:33;;;;;;;;;157.75;150.25;7.00;44.50;;;;;;4995163;28;8780;-64
2022/03/15 05:35:59;;;;;;;;;165.75;146.00;6.40;46.80;;;;;;4995118;28;8769;-62
2022/03/15 05:38:26;;;;;;;;;165.25;149.00;6.20;47.50;;;;;;4994819;28;8784;-62
2022/03/15 05:40:52;;;;;;;;;166.50;150.50;6.50;47.10;;;;;;4994694;28;8837;-63
2022/03/15 05:43:22;;;;;;;;;147.75;132.50;6.50;46.90;;;;;;4994671;28;8816;-64
2022/03/15 05:45:48;;;;;;;;;144.25;134.00;6.80;46.90;;;;;;4995021;28;8808;-63
2022/03/15 05:48:14;;;;;;;;;128.25;114.75;6.70;46.60;;;;;;4995024;28;8773;-64
2022/03/15 05:50:40;;;;;;;;;141.75;128.00;6.90;46.40;;;;;;4999146;28;8791;-63
2022/03/15 05:53:06;;;;;;;;;140.50;129.50;7.50;44.50;;;;;;4998742;28;8796;-62
2022/03/15 05:55:32;;;;;;;;;148.75;138.75;7.90;43.00;;;;;;4998393;28;8832;-64
2022/03/15 05:57:59;;;;;;;;;132.50;119.00;8.20;42.80;;;;;;4998686;28;8783;-62
2022/03/15 06:00:26;;;;;;;;;130.75;120.50;8.20;42.10;;;;;;4998602;28;8785;-64
2022/03/15 06:02:52;;;;;;;;;128.00;120.50;8.40;41.90;;;;;;4998498;28;8800;-63
2022/03/15 06:05:18;;;;;;;;;139.75;122.25;8.50;41.60;;;;;;4998457;28;8773;-65
2022/03/15 06:07:48;;;;;;;;;131.00;120.75;8.80;41.30;;;;;;4998589;28;8780;-64
2022/03/15 06:10:15;;;;;;;;;113.25;109.25;8.90;40.50;;;;;;4998377;28;8757;-64
2022/03/15 06:12:42;;;;;;;;;137.50;124.50;8.90;40.00;;;;;;4998221;28;8780;-63
2022/03/15 06:15:08;;;;;;;;;162.50;142.75;8.70;39.20;;;;;;4998210;28;8773;-62
2022/03/15 06:17:49;;;;;;;;;122.75;106.00;8.50;39.00;;;;;;4998442;28;8815;-63
2022/03/15 06:20:17;;;;;;;;;121.75;106.25;8.40;38.70;;;;;;4998137;28;8800;-63
2022/03/15 06:22:43;;;;;;;;;110.25;102.00;8.40;39.40;;;;;;4997959;28;8859;-65
2022/03/15 06:25:09;;;;;;;;;132.00;124.50;8.50;39.00;;;;;;4997991;28;8804;-64
2022/03/15 06:27:36;;;;;;;;;152.75;133.00;8.70;38.90;;;;;;4998043;28;8776;-64
2022/03/15 06:30:04;;;;;;;;;141.25;124.00;8.80;39.50;;;;;;4998040;28;8788;-62
2022/03/15 06:32:31;;;;;;;;;104.00;87.75;9.00;39.10;;;;;;4997949;28;8785;-63
2022/03/15 06:34:58;;;;;;;;;131.25;126.25;8.80;39.80;;;;;;4997884;28;8772;-64
2022/03/15 06:37:24;;;;;;;;;141.25;131.25;8.90;39.60;;;;;;4997781;28;8805;-62
2022/03/15 06:39:50;;;;;;;;;129.50;111.50;8.80;40.10;;;;;;4997733;28;8788;-63
2022/03/15 06:42:17;;;;;;;;;121.75;113.00;9.00;39.80;;;;;;4997647;28;8804;-63
2022/03/15 06:44:44;;;;;;;;;121.25;108.00;9.00;39.50;;;;;;4997764;28;8773;-62
2022/03/15 06:47:10;;;;;;;;;158.00;144.50;9.10;39.60;;;;;;4997895;28;8799;-62
2022/03/15 06:49:36;;;;;;;;;128.50;121.50;8.60;40.30;;;;;;4997641;28;9850;-62
2022/03/15 06:52:02;;;;;;;;;127.50;116.00;8.60;40.70;;;;;;4997692;28;8777;-63
2022/03/15 06:54:28;;;;;;;;;151.00;138.75;8.80;40.30;;;;;;4997345;28;8867;-63
2022/03/15 06:56:56;;;;;;;;;162.00;146.50;9.10;40.60;;;;;;4997812;28;8792;-64
2022/03/15 06:59:21;;;;;;;;;156.75;133.50;8.90;40.90;;;;;;4997408;28;8894;-63
2022/03/15 07:01:47;;;;;;;;;144.75;129.25;8.50;42.70;;;;;;4997634;28;8784;-62
2022/03/15 07:04:13;;;;;;;;;137.00;119.50;8.60;43.20;;;;;;4997648;28;8772;-63
2022/03/15 07:06:39;;;;;;;;;146.50;136.00;9.30;42.00;;;;;;4997451;28;9423;-62
2022/03/15 07:09:04;;;;;;;;;155.75;138.75;9.20;42.50;;;;;;4997496;28;8768;-62
2022/03/15 07:11:30;;;;;;;;;161.50;146.50;8.80;44.20;;;;;;4997145;28;8780;-64
2022/03/15 07:13:57;;;;;;;;;130.75;118.00;8.80;44.80;;;;;;4997192;28;8803;-63
2022/03/15 07:16:23;;;;;;;;;148.75;133.50;8.60;45.20;;;;;;4997406;28;8788;-63
2022/03/15 07:18:49;;;;;;;;;142.25;130.50;8.80;44.80;;;;;;4997685;28;8765;-63
2022/03/15 07:21:14;;;;;;;;;142.50;128.50;9.10;44.20;;;;;;4997247;28;8764;-64
2022/03/15 07:23:40;;;;;;;;;137.75;127.25;9.70;42.10;;;;;;4996957;28;9497;-63
2022/03/15 07:26:07;;;;;;;;;153.00;140.25;9.80;41.70;;;;;;4996979;28;8769;-63
2022/03/15 07:28:34;;;;;;;;;140.25;131.75;10.10;41.20;;;;;;4997041;28;8788;-63
2022/03/15 07:30:59;;;;;;;;;142.50;135.50;10.20;41.20;;;;;;4997173;28;8798;-65
2022/03/15 07:33:25;;;;;;;;;148.75;133.00;10.00;40.90;;;;;;4997077;28;8887;-63
2022/03/15 07:35:51;;;;;;;;;156.00;144.25;10.20;41.00;;;;;;4996911;28;9616;-65
2022/03/15 07:38:17;;;;;;;;;159.50;142.25;10.50;40.50;;;;;;4997114;28;8903;-63
2022/03/15 07:40:48;;;;;;;;;173.00;156.50;10.80;39.80;;;;;;4997022;28;8784;-64
2022/03/15 07:43:14;;;;;;;;;163.00;143.50;10.90;39.70;;;;;;4996533;28;8808;-64
2022/03/15 07:45:39;;;;;;;;;174.50;154.50;10.70;40.10;;;;;;4996568;28;8911;-65
2022/03/15 07:48:06;;;;;;;;;173.50;148.00;10.10;40.80;;;;;;4996810;28;8930;-65
2022/03/15 07:50:33;;;;;;;;;148.25;139.00;10.10;39.70;;;;;;4996799;28;8768;-64
2022/03/15 07:52:59;;;;;;;;;154.75;146.25;10.10;40.30;;;;;;4996348;28;8776;-64
2022/03/15 07:55:25;;;;;;;;;161.50;151.50;10.50;40.00;;;;;;4996294;28;8843;-63
2022/03/15 07:57:50;;;;;;;;;147.75;138.25;10.80;39.80;;;;;;4996640;28;8788;-63
2022/03/15 08:00:17;;;;;;;;;145.00;137.50;10.90;39.00;;;;;;4996226;28;8796;-63
2022/03/15 08:02:43;;;;;;;;;147.75;134.50;11.10;38.70;;;;;;4996165;28;8820;-64
2022/03/15 08:05:09;;;;;;;;;130.25;119.00;11.50;38.30;;;;;;4996156;28;8875;-62
2022/03/15 08:07:36;;;;;;;;;140.00;126.75;11.80;37.70;;;;;;4996142;28;8769;-63
2022/03/15 08:10:07;;;;;;;;;142.50;131.50;11.90;36.10;;;;;;4996148;28;8780;-61
2022/03/15 08:12:34;;;;;;;;;136.25;125.00;11.90;36.10;;;;;;4995767;28;8776;-62
2022/03/15 08:14:59;;;;;;;;;136.00;121.00;11.90;36.50;;;;;;4996191;28;8768;-62
2022/03/15 08:17:25;;;;;;;;;149.25;133.50;12.00;36.60;;;;;;4996141;28;8776;-63
2022/03/15 08:19:53;;;;;;;;;144.25;131.50;12.20;36.40;;;;;;4996002;28;8796;-63
2022/03/15 08:22:19;;;;;;;;;142.25;133.25;12.20;37.40;;;;;;4995844;28;8828;-64
2022/03/15 08:24:45;;;;;;;;;140.25;127.50;12.60;35.40;;;;;;4993644;28;8879;-63
2022/03/15 08:27:11;;;;;;;;;133.25;117.75;12.50;35.00;;;;;;4976617;28;8794;-71
2022/03/15 08:29:37;;;;;;;;;123.75;108.25;12.60;34.40;;;;;;4975145;28;8890;-65
2022/03/15 08:32:03;;;;;;;;;123.25;117.00;12.70;33.80;;;;;;4976191;28;8767;-65
2022/03/15 08:34:29;;;;;;;;;124.00;115.75;12.40;34.30;;;;;;4976429;28;8771;-65
2022/03/15 08:36:55;;;;;;;;;120.75;109.25;12.60;34.40;;;;;;4985405;28;9456;-65
2022/03/15 08:39:23;;;;;;;;;124.75;115.75;12.80;34.10;;;;;;4996517;28;8797;-66
2022/03/15 08:41:53;;;;;;;;;122.75;113.25;12.80;34.40;;;;;;4995783;28;8911;-66
2022/03/15 08:44:19;;;;;;;;;119.25;110.75;12.60;36.10;;;;;;4995625;28;8787;-66
2022/03/15 08:46:47;;;;;;;;;112.50;98.25;12.60;34.80;;;;;;4995581;28;8795;-65
2022/03/15 08:49:14;;;;;;;;;130.25;116.25;12.20;35.30;;;;;;4995470;28;8772;-65
2022/03/15 08:51:41;;;;;;;;;120.00;112.75;12.40;34.90;;;;;;4995262;28;8792;-65
2022/03/15 08:54:07;;;;;;;;;119.25;111.00;12.90;33.90;;;;;;4994411;28;8836;-65
2022/03/15 08:56:33;;;;;;;;;131.00;124.00;13.30;32.60;;;;;;4995211;28;8804;-65
2022/03/15 08:58:59;;;;;;;;;129.25;123.50;13.80;32.30;;;;;;4995274;28;8788;-65
2022/03/15 09:01:25;;;;;;;;;128.75;122.25;13.30;33.50;;;;;;4995202;28;8811;-65
2022/03/15 09:03:50;;;;;;;;;125.50;119.75;13.30;33.30;;;;;;4995494;28;8804;-65
2022/03/15 09:06:16;;;;;;;;;110.00;100.75;13.80;32.40;;;;;;4995537;28;8851;-65
2022/03/15 09:08:42;;;;;;;;;100.75;92.75;13.30;32.40;;;;;;4994899;28;9486;-66
2022/03/15 09:11:08;;;;;;;;;107.75;101.75;13.80;30.60;;;;;;4995123;28;8818;-67
2022/03/15 09:13:35;;;;;;;;;123.50;110.75;14.20;30.00;;;;;;4995380;28;8777;-63
2022/03/15 09:16:01;;;;;;;;;142.50;130.50;14.00;30.50;;;;;;4995205;28;8776;-65
2022/03/15 09:18:27;;;;;;;;;170.25;156.00;14.30;30.80;;;;;;4995150;28;8794;-66
2022/03/15 09:20:53;;;;;;;;;164.50;152.75;14.30;32.50;;;;;;4995146;28;8784;-66
2022/03/15 09:23:20;;;;;;;;;175.00;155.50;14.50;31.80;;;;;;4994496;28;9475;-66
2022/03/15 09:25:47;;;;;;;;;190.50;177.75;14.90;31.60;;;;;;5014855;28;8777;-65
2022/03/15 09:28:13;;;;;;;;;165.50;149.25;15.10;30.80;;;;;;5014593;28;8912;-68
2022/03/15 09:30:39;;;;;;;;;160.25;145.75;14.60;31.30;;;;;;5014537;28;8864;-68
2022/03/15 09:33:05;;;;;;;;;160.50;151.75;14.00;31.70;;;;;;5014598;28;8788;-70
2022/03/15 09:35:31;;;;;;;;;166.50;154.75;14.40;30.50;;;;;;5014242;28;8774;-60
2022/03/15 09:37:57;;;;;;;;;152.00;137.50;14.90;29.90;;;;;;5013860;28;8801;-64
2022/03/15 09:40:25;;;;;;;;;153.25;143.25;15.20;30.30;;;;;;5014140;28;8797;-63
2022/03/15 09:42:58;;;;;;;;;137.50;128.50;15.60;29.50;;;;;;5014571;28;9447;-62
2022/03/15 09:45:28;;;;;;;;;149.25;133.50;15.80;29.10;;;;;;5014700;28;8773;-64
2022/03/15 09:47:59;;;;;;;;;130.75;121.25;16.00;29.10;;;;;;5014126;28;8761;-61
2022/03/15 09:50:26;;;;;;;;;106.50;95.50;15.70;29.00;;;;;;5014380;28;8770;-65
2022/03/15 09:52:57;;;;;;;;;94.50;84.75;15.90;28.90;;;;;;5014375;28;8848;-63
2022/03/15 09:55:25;;;;;;;;;95.00;84.00;16.00;28.40;;;;;;5014242;28;8852;-65
2022/03/15 09:57:52;;;;;;;;;105.75;95.75;16.20;28.40;;;;;;5014496;28;8855;-66
2022/03/15 10:00:18;;;;;;;;;100.25;98.00;16.00;30.00;;;;;;5014241;28;8909;-64
2022/03/15 10:02:45;;;;;;;;;98.00;90.25;15.50;30.30;;;;;;5014421;28;9464;-65
2022/03/15 10:05:11;;;;;;;;;91.00;90.25;15.70;29.70;;;;;;5014321;28;8792;-66
2022/03/15 10:07:38;;;;;;;;;90.00;86.00;16.30;30.10;;;;;;5014246;28;8774;-67
2022/03/15 10:10:07;;;;;;;;;80.50;71.75;16.00;30.80;;;;;;5014187;28;8843;-65
2022/03/15 10:12:34;;;;;;;;;76.50;67.25;15.60;29.10;;;;;;5014380;28;8809;-64
2022/03/15 10:15:13;;;;;;;;;81.00;71.00;15.60;28.90;;;;;;5014359;28;8770;-69
2022/03/15 10:17:44;;;;;;;;;78.25;69.00;16.10;28.30;;;;;;5014167;28;8786;-63
2022/03/15 10:20:13;;;;;;;;;88.75;79.50;16.60;28.40;;;;;;5014093;28;8790;-63
2022/03/15 10:22:54;;;;;;;;;82.00;73.75;16.50;28.40;;;;;;5013008;28;8810;-64
2022/03/15 10:25:22;;;;;;;;;86.25;81.75;16.20;29.30;;;;;;5013894;28;8809;-65
2022/03/15 10:27:59;;;;;;;;;68.50;54.50;16.50;29.10;;;;;;5012602;28;8806;-66
2022/03/15 10:30:26;;;;;;;;;56.25;45.25;16.80;29.30;;;;;;5014171;28;9741;-66
2022/03/15 10:32:53;;;;;;;;;57.75;48.75;16.70;27.80;;;;;;5005771;28;8805;-67
2022/03/15 10:35:32;;;;;;;;;53.75;44.50;17.30;26.10;;;;;;4996736;28;8769;-67
2022/03/15 10:37:59;;;;;;;;;80.50;69.75;18.30;25.30;;;;;;4997905;28;8806;-69
2022/03/15 10:40:52;;;;;;;;;69.00;54.50;19.10;25.00;;;;;;4998112;28;8811;-69
2022/03/15 10:43:24;;;;;;;;;54.75;46.00;19.00;25.20;;;;;;4996870;28;8812;-68
2022/03/15 10:45:57;;;;;;;;;50.25;42.75;18.60;25.40;;;;;;4998051;28;8874;-70
2022/03/15 10:48:32;;;;;;;;;50.25;41.25;18.30;23.50;;;;;;4997813;28;8835;-63
2022/03/15 10:51:15;;;;;;;;;53.00;42.75;18.40;24.10;;;;;;4996559;28;8801;-64
2022/03/15 10:53:47;;;;;;;;;51.25;43.00;19.40;22.80;;;;;;4997566;28;8843;-63
2022/03/15 10:56:23;;;;;;;;;56.75;45.75;20.70;21.80;;;;;;4997829;28;8977;-62
2022/03/15 10:59:00;;;;;;;;;57.00;46.25;21.30;20.90;;;;;;4997498;28;8765;-65
2022/03/15 11:01:28;;;;;;;;;69.50;55.50;21.30;20.30;;;;;;4997583;28;8777;-63
2022/03/15 11:04:02;;;;;;;;;67.50;54.25;20.90;22.30;;;;;;4997439;28;8784;-63
2022/03/15 11:06:39;;;;;;;;;109.00;99.25;21.80;22.80;;;;;;5004401;28;8787;-64
2022/03/15 11:09:28;;;;;;;;;84.50;75.50;22.20;21.50;;;;;;5005415;28;9948;-64
2022/03/15 11:12:06;;;;;;;;;68.75;54.75;21.50;21.90;;;;;;5003023;28;8859;-64
2022/03/15 11:14:40;;;;;;;;;61.75;50.50;21.40;21.90;;;;;;4999575;28;8785;-66
2022/03/15 11:17:09;;;;;;;;;59.25;48.50;21.80;21.30;;;;;;4997225;28;8776;-66
2022/03/15 11:19:39;;;;;;;;;60.50;47.75;22.50;21.10;;;;;;4997087;28;8792;-67
2022/03/15 11:22:06;;;;;;;;;61.25;49.00;22.70;19.60;;;;;;4997404;28;9533;-63
2022/03/15 11:24:38;;;;;;;;;57.75;48.00;23.30;19.20;;;;;;4997274;28;8871;-63
2022/03/15 11:27:07;;;;;;;;;58.75;47.25;23.30;18.80;;;;;;4997395;28;8769;-62
2022/03/15 11:29:36;;;;;;;;;52.50;44.00;22.50;18.80;;;;;;4997158;28;8780;-62
2022/03/15 11:32:02;;;;;;;;;54.00;45.25;24.30;17.90;;;;;;4996945;28;8784;-64
2022/03/15 11:34:29;;;;;;;;;56.50;45.00;27.20;16.90;;;;;;4996930;28;8779;-65
2022/03/15 11:36:57;;;;;;;;;52.67;44.00;30.00;15.70;;;;;;4997073;28;8780;-64
2022/03/15 11:39:24;;;;;;;;;46.33;39.67;31.80;15.10;;;;;;4999437;28;8828;-63
2022/03/15 11:41:50;;;;;;;;;46.00;38.67;33.00;13.80;;;;;;5016336;28;8794;-63
2022/03/15 11:44:40;;;;;;;;;41.00;36.00;34.60;12.90;;;;;;5016188;28;8868;-63
2022/03/15 11:47:42;;;;;;;;;38.67;34.67;35.70;11.80;;;;;;5015593;28;9789;-63
2022/03/15 11:50:28;;;;;;;;;49.00;42.33;35.60;11.70;;;;;;5015896;28;8770;-65
2022/03/15 11:53:05;;;;;;;;;47.00;40.33;34.40;12.70;;;;;;5016099;28;8786;-65
2022/03/15 11:55:36;;;;;;;;;47.33;40.00;31.60;13.10;;;;;;5015887;28;8833;-66
2022/03/15 11:58:08;;;;;;;;;38.67;35.33;30.90;13.20;;;;;;5016215;28;8805;-68
2022/03/15 12:00:46;;;;;;;;;46.33;40.33;29.70;13.60;;;;;;5015924;28;8871;-66
2022/03/15 12:03:19;;;;;;;;;49.67;42.33;28.70;14.60;;;;;;5015682;28;8813;-67
2022/03/15 12:05:54;;;;;;;;;46.33;40.33;26.90;14.70;;;;;;5015948;28;8761;-66
2022/03/15 12:08:26;;;;;;;;;52.25;44.25;25.40;15.90;;;;;;5015497;28;8770;-67
2022/03/15 12:10:57;;;;;;;;;48.25;41.25;24.70;16.30;;;;;;5015355;28;8770;-67
2022/03/15 12:13:40;;;;;;;;;47.25;41.00;25.10;16.30;;;;;;5015449;28;8794;-67
2022/03/15 12:16:15;;;;;;;;;54.25;46.25;24.90;16.90;;;;;;5015892;28;9428;-66
2022/03/15 12:19:13;;;;;;;;;48.75;41.50;25.50;17.20;;;;;;5015986;28;8762;-66
2022/03/15 12:21:53;;;;;;;;;56.50;47.50;26.60;17.10;;;;;;5015621;28;8776;-65
2022/03/15 12:24:32;;;;;;;;;51.00;43.75;27.50;16.60;;;;;;5015785;28;8825;-67
2022/03/15 12:27:01;;;;;;;;;50.00;43.00;26.70;15.50;;;;;;5015405;28;8781;-66
2022/03/15 12:29:27;;;;;;;;;45.67;39.33;25.90;15.30;;;;;;5015460;28;8774;-67